Seaspan Protector — CFN6635 — position and weather

sailwx.info

Track history (hours):
 
Tides and Currents Weather Stations Pressure Air Temp Water Temp Dewpoint Dewpoint Depression Visibility Wind Speed Wind Dir Waves Ship Positions

Seaspan Protector

Last reported at 2017-Nov-17 20:22 UTC. Time now 2017-Nov-17 23:20 UTC.
Position N 49°04' W 123°31'.

Length 22 m; draft 3.2 m.

Type: Towing. MMSI: 316003677.

Date/timePositionNaut miles runAvg speedWind from/ knotsBaromVisibWave heightAir tempDewpointWater temp
2017-Nov-17 20:22N 49°04' W 123°31'2 3.8
2017-Nov-17 19:58N 49°05' W 123°29'3 4.1
2017-Nov-17 19:19N 49°05' W 123°25'1 4.3
2017-Nov-17 19:00N 49°05' W 123°23'3 5.3
2017-Nov-17 18:22N 49°06' W 123°18'2 6.8
2017-Nov-17 18:00N 49°08' W 123°15'3 7.0
2017-Nov-17 17:30N 49°07' W 123°09'3 6.8
2017-Nov-17 17:00N 49°07' W 123°04'3 6.7
2017-Nov-17 16:29N 49°09' W 123°00'2 3.3
2017-Nov-17 15:58N 49°09' W 122°57'0 0.1
2017-Nov-17 14:53N 49°09' W 122°57'1 1.0
2017-Nov-17 14:21N 49°10' W 122°58'0 0.6
2017-Nov-17 14:00N 49°09' W 122°58'2 4.1
2017-Nov-17 13:30N 49°09' W 123°01'3 5.4
2017-Nov-17 13:00N 49°07' W 123°05'3 5.8
2017-Nov-17 12:30N 49°07' W 123°09'4 6.9
2017-Nov-17 11:59N 49°08' W 123°14'4 7.8
2017-Nov-17 11:28N 49°06' W 123°19'3 7.0
2017-Nov-17 11:00N 49°04' W 123°24'6 0.8
2017-Nov-17 04:05N 49°02' W 123°32'0 1.4
2017-Nov-17 03:51N 49°02' W 123°32'2 3.8
2017-Nov-17 03:25N 49°04' W 123°33'2 3.8
2017-Nov-17 02:49N 49°03' W 123°29'2 3.9
2017-Nov-17 02:22N 49°04' W 123°27'2 4.5
2017-Nov-17 01:53N 49°05' W 123°24'2 5.2
2017-Nov-17 01:28N 49°05' W 123°20'3 5.6
2017-Nov-17 00:59N 49°07' W 123°17'3 5.2
2017-Nov-17 00:29N 49°08' W 123°13'3 4.9
2017-Nov-16 23:56N 49°07' W 123°10'2 5.1
2017-Nov-16 23:30N 49°07' W 123°06'3 5.1
2017-Nov-16 23:00N 49°08' W 123°03'3 5.4
2017-Nov-16 22:30N 49°09' W 122°59'1 2.7
2017-Nov-16 22:00N 49°09' W 122°57'0 0.0
2017-Nov-16 21:30N 49°09' W 122°57'0 0.0
2017-Nov-16 20:58N 49°09' W 122°57'1 2.0
2017-Nov-16 20:30N 49°10' W 122°56'0 0.7
2017-Nov-16 19:51N 49°10' W 122°55'2 4.6
2017-Nov-16 19:30N 49°09' W 122°58'4 7.2
2017-Nov-16 19:00N 49°08' W 123°03'4 7.1
2017-Nov-16 18:30N 49°07' W 123°07'3 5.5
2017-Nov-16 18:00N 49°07' W 123°11'0 0.0
2017-Nov-16 17:20N 49°07' W 123°11'0 0.0
2017-Nov-16 16:56N 49°07' W 123°11'0 0.0
2017-Nov-16 16:23N 49°07' W 123°11'0 0.0
2017-Nov-16 16:00N 49°07' W 123°11'3 6.4
2017-Nov-16 15:30N 49°07' W 123°07'5 9.2
2017-Nov-16 15:00N 49°09' W 123°01'2 4.1
2017-Nov-16 14:30N 49°09' W 122°58'1 2.3
2017-Nov-16 14:00N 49°09' W 122°59'3 5.1
2017-Nov-16 13:30N 49°08' W 123°03'3 6.9
2017-Nov-16 13:00N 49°07' W 123°07'3 6.9
2017-Nov-16 12:30N 49°08' W 123°12'3 6.3
2017-Nov-16 12:00N 49°07' W 123°17'3 6.2
2017-Nov-16 11:29N 49°05' W 123°22'15 4.8
2017-Nov-16 08:27N 48°54' W 123°36'9 1.9
2017-Nov-16 03:51N 49°02' W 123°31'2 5.9
2017-Nov-16 03:29N 49°03' W 123°28'4 6.1
2017-Nov-16 02:52N 49°05' W 123°23'2 6.0
2017-Nov-16 02:30N 49°06' W 123°20'3 6.4
2017-Nov-16 02:00N 49°07' W 123°16'3 5.5
2017-Nov-16 01:24N 49°07' W 123°11'2 6.0
2017-Nov-16 01:00N 49°07' W 123°07'3 5.5
2017-Nov-16 00:27N 49°08' W 123°03'3 4.9
2017-Nov-15 23:51N 49°09' W 122°59'1 3.6
2017-Nov-15 23:30N 49°09' W 122°57'1 2.0
2017-Nov-15 23:00N 49°10' W 122°56'0 0.9
2017-Nov-15 22:29N 49°10' W 122°55'0 0.0
2017-Nov-15 22:00N 49°10' W 122°55'0 0.0
2017-Nov-15 21:27N 49°10' W 122°55'0 0.0
2017-Nov-15 20:57N 49°10' W 122°55'2 3.9
2017-Nov-15 20:29N 49°09' W 122°58'2 5.1
2017-Nov-15 20:00N 49°09' W 123°02'4 7.2
2017-Nov-15 19:30N 49°07' W 123°06'3 5.7
2017-Nov-15 18:59N 49°07' W 123°11'3 5.5
2017-Nov-15 18:30N 49°08' W 123°15'3 5.6
2017-Nov-15 17:59N 49°06' W 123°18'2 4.8
2017-Nov-15 17:30N 49°05' W 123°22'4 7.7
2017-Nov-15 17:00N 49°04' W 123°27'11 7.0
2017-Nov-15 15:24N 48°54' W 123°37'2 0.1
2017-Nov-14 19:15N 48°55' W 123°39'2 6.1
2017-Nov-14 18:54N 48°56' W 123°42'1 0.3
2017-Nov-14 16:39N 48°55' W 123°43'1 1.7
2017-Nov-14 16:17N 48°56' W 123°43'2 6.7
2017-Nov-14 15:57N 48°55' W 123°40'4 0.7
2017-Nov-14 10:12N 48°59' W 123°37'3 4.9
2017-Nov-14 09:35N 49°01' W 123°35'2 4.9
2017-Nov-14 09:07N 49°02' W 123°32'2 6.0
2017-Nov-14 08:52N 49°03' W 123°29'3 6.3
2017-Nov-14 08:27N 49°04' W 123°26'3 5.9
2017-Nov-14 08:00N 49°05' W 123°22'3 5.8
2017-Nov-14 07:30N 49°06' W 123°18'3 6.4
2017-Nov-14 07:00N 49°08' W 123°14'4 7.1
2017-Nov-14 06:30N 49°07' W 123°09'3 6.9
2017-Nov-14 06:00N 49°08' W 123°04'4 7.5
2017-Nov-14 05:28N 49°09' W 122°58'0 0.6
2017-Nov-14 04:53N 49°09' W 122°58'2 4.0
2017-Nov-14 04:30N 49°10' W 122°55'0 0.0
2017-Nov-14 04:00N 49°10' W 122°55'0 0.0
2017-Nov-14 03:30N 49°10' W 122°55'0 0.0
2017-Nov-14 03:00N 49°10' W 122°55'0 0.0
2017-Nov-14 02:28N 49°10' W 122°55'0 0.0
2017-Nov-14 02:00N 49°10' W 122°55'0 0.0
2017-Nov-14 01:29N 49°10' W 122°55'0 0.0
2017-Nov-14 00:59N 49°10' W 122°55'0 0.0
2017-Nov-14 00:30N 49°10' W 122°55'0 0.0
2017-Nov-13 23:57N 49°10' W 122°55'0 0.0
2017-Nov-13 23:30N 49°10' W 122°55'0 0.0
2017-Nov-13 22:58N 49°10' W 122°55'0 0.0
2017-Nov-13 22:29N 49°10' W 122°55'0 0.0
2017-Nov-13 21:59N 49°10' W 122°55'23 1.1
2017-Nov-13 00:38N 49°03' W 123°29'1 7.1
2017-Nov-13 00:30N 49°04' W 123°27'6 6.9
2017-Nov-12 23:41N 49°06' W 123°19'2 7.1
2017-Nov-12 23:23N 49°07' W 123°17'3 6.6
2017-Nov-12 23:00N 49°08' W 123°13'3 6.2
2017-Nov-12 22:30N 49°06' W 123°09'3 5.5
2017-Nov-12 21:58N 49°07' W 123°05'4 4.7
2017-Nov-12 21:12N 49°09' W 122°60'1 3.7
2017-Nov-12 20:56N 49°09' W 122°58'1 2.0
2017-Nov-12 20:28N 49°09' W 122°57'1 2.6
2017-Nov-12 20:00N 49°10' W 122°55'0 0.0
2017-Nov-12 19:28N 49°10' W 122°55'0 0.0
2017-Nov-12 19:00N 49°10' W 122°55'0 0.0
2017-Nov-12 18:30N 49°10' W 122°55'0 0.0
2017-Nov-12 18:00N 49°10' W 122°55'0 0.0
2017-Nov-12 17:30N 49°10' W 122°55'0 0.0
2017-Nov-12 17:00N 49°10' W 122°55'0 0.0
2017-Nov-12 16:30N 49°10' W 122°55'0 0.0
2017-Nov-12 16:00N 49°10' W 122°55'0 0.0
2017-Nov-12 15:30N 49°10' W 122°55'0 0.0
2017-Nov-12 15:00N 49°10' W 122°55'0 0.0
2017-Nov-12 14:24N 49°10' W 122°55'0 0.0
2017-Nov-12 13:59N 49°10' W 122°55'0 0.0
2017-Nov-12 13:30N 49°10' W 122°55'0 0.0
2017-Nov-12 13:00N 49°10' W 122°55'0 0.0
2017-Nov-12 12:29N 49°10' W 122°55'0 0.0
2017-Nov-12 12:00N 49°10' W 122°55'0 0.0
2017-Nov-12 11:30N 49°10' W 122°55'0 0.0
2017-Nov-12 10:59N 49°10' W 122°55'0 0.0
2017-Nov-12 10:28N 49°10' W 122°55'0 0.0
2017-Nov-12 10:00N 49°10' W 122°55'0 0.0
2017-Nov-12 09:30N 49°10' W 122°55'2 4.2
2017-Nov-12 09:00N 49°09' W 122°58'2 4.1
2017-Nov-12 08:30N 49°09' W 123°02'3 5.9
2017-Nov-12 08:00N 49°07' W 123°05'3 5.9
2017-Nov-12 07:30N 49°07' W 123°09'3 5.8
2017-Nov-12 06:59N 49°08' W 123°13'3 5.9
2017-Nov-12 06:30N 49°07' W 123°17'3 6.0
2017-Nov-12 05:59N 49°05' W 123°22'4 6.7
2017-Nov-12 05:27N 49°04' W 123°27'11 5.6
2017-Nov-12 03:33N 48°55' W 123°37'2 6.6
2017-Nov-12 03:14N 48°53' W 123°36'6 2.2
2017-Nov-12 00:30N 48°59' W 123°37'4 5.8
2017-Nov-11 23:45N 49°03' W 123°34'2 5.7
2017-Nov-11 23:28N 49°05' W 123°33'3 6.0
2017-Nov-11 22:57N 49°07' W 123°30'3 6.4
2017-Nov-11 22:24N 49°10' W 123°27'3 6.3
2017-Nov-11 21:59N 49°12' W 123°24'3 6.1
2017-Nov-11 21:30N 49°14' W 123°21'3 5.7
2017-Nov-11 20:59N 49°16' W 123°18'2 3.7
2017-Nov-11 20:29N 49°15' W 123°15'2 3.5
2017-Nov-11 20:00N 49°14' W 123°13'0 0.0
2017-Nov-11 19:30N 49°14' W 123°13'3 5.1
2017-Nov-11 18:59N 49°13' W 123°10'1 2.3
2017-Nov-11 18:30N 49°12' W 123°08'0 0.0
2017-Nov-11 17:56N 49°12' W 123°08'0 0.0
2017-Nov-11 17:30N 49°12' W 123°08'0 0.0
2017-Nov-11 16:59N 49°12' W 123°08'0 0.0
2017-Nov-11 10:25N 49°12' W 123°08'0 0.0
2017-Nov-11 09:48N 49°12' W 123°08'2 4.5
2017-Nov-11 09:26N 49°12' W 123°06'5 6.6
2017-Nov-11 08:39N 49°11' W 122°58'2 5.6
2017-Nov-11 08:16N 49°11' W 122°55'2 7.6
2017-Nov-11 07:59N 49°10' W 122°57'2 3.0
2017-Nov-11 07:27N 49°09' W 122°59'3 6.5
2017-Nov-11 07:00N 49°08' W 123°03'3 6.4
2017-Nov-11 06:30N 49°07' W 123°07'3 5.9
2017-Nov-11 05:57N 49°07' W 123°12'3 5.7
2017-Nov-11 05:30N 49°07' W 123°16'3 6.2
2017-Nov-11 05:00N 49°07' W 123°21'3 6.4
2017-Nov-11 04:29N 49°09' W 123°25'4 8.2
2017-Nov-11 03:59N 49°11' W 123°29'4 8.0
2017-Nov-11 03:28N 49°14' W 123°34'5 7.6
2017-Nov-11 02:52N 49°16' W 123°40'15 8.2
2017-Nov-11 01:00N 49°26' W 123°58'4 7.9
2017-Nov-11 00:27N 49°29' W 124°03'4 8.0
2017-Nov-11 00:00N 49°32' W 124°07'4 8.0
2017-Nov-10 23:29N 49°35' W 124°11'4 7.8
2017-Nov-10 23:00N 49°38' W 124°15'4 8.0
2017-Nov-10 22:30N 49°41' W 124°19'4 8.1
2017-Nov-10 22:00N 49°44' W 124°23'4 7.8
2017-Nov-10 21:30N 49°46' W 124°28'4 7.6
2017-Nov-10 21:00N 49°49' W 124°33'4 7.5
2017-Nov-10 20:30N 49°52' W 124°34'0 1.0
2017-Nov-10 20:00N 49°52' W 124°34'0 0.0
2017-Nov-10 19:30N 49°52' W 124°34'0 0.0
2017-Nov-10 19:00N 49°52' W 124°34'0 0.0
2017-Nov-10 18:30N 49°52' W 124°34'0 0.0
2017-Nov-10 18:00N 49°52' W 124°34'0 0.0
2017-Nov-10 17:30N 49°52' W 124°34'0 0.0
2017-Nov-10 17:00N 49°52' W 124°34'0 0.0
2017-Nov-10 16:30N 49°52' W 124°34'0 0.3
2017-Nov-10 16:00N 49°52' W 124°34'1 2.7
2017-Nov-10 15:28N 49°51' W 124°34'2 4.6
2017-Nov-10 15:00N 49°49' W 124°33'4 7.4
2017-Nov-10 14:30N 49°46' W 124°29'4 8.3
2017-Nov-10 14:00N 49°44' W 124°24'4 7.7
2017-Nov-10 13:30N 49°42' W 124°19'4 8.2
2017-Nov-10 12:59N 49°38' W 124°15'38 7.7
2017-Nov-10 08:03N 49°12' W 123°33'4 7.8
2017-Nov-10 07:33N 49°10' W 123°28'2 7.6
2017-Nov-10 07:21N 49°09' W 123°26'4 7.4
2017-Nov-10 06:52N 49°07' W 123°22'3 6.5
2017-Nov-10 06:27N 49°06' W 123°18'4 8.0
2017-Nov-10 05:58N 49°07' W 123°12'4 8.8
2017-Nov-10 05:30N 49°07' W 123°06'4 8.5
2017-Nov-10 04:59N 49°09' W 122°60'2 3.8
2017-Nov-10 04:28N 49°10' W 122°57'0 0.0
2017-Nov-10 02:49N 49°10' W 122°57'1 2.1
2017-Nov-10 02:29N 49°10' W 122°58'2 4.5
2017-Nov-10 01:59N 49°09' W 123°01'3 5.4
2017-Nov-10 01:30N 49°07' W 123°05'3 5.3
2017-Nov-10 00:59N 49°07' W 123°09'3 5.2
2017-Nov-10 00:24N 49°08' W 123°13'3 5.7
2017-Nov-09 23:55N 49°07' W 123°17'3 7.1
2017-Nov-09 23:26N 49°05' W 123°21'12 6.7
2017-Nov-09 21:40N 48°59' W 123°37'3 7.5
2017-Nov-09 21:15N 48°56' W 123°37'2 7.5
2017-Nov-09 20:59N 48°54' W 123°37'1 0.6
2017-Nov-09 18:38N 48°52' W 123°38'0 0.3
2017-Nov-09 18:26N 48°53' W 123°38'7 3.3
2017-Nov-09 16:14N 48°60' W 123°36'2 4.4
2017-Nov-09 15:48N 49°01' W 123°35'1 2.9
2017-Nov-09 15:24N 49°02' W 123°33'1 3.3
2017-Nov-09 15:00N 49°01' W 123°32'1 2.6
2017-Nov-09 14:29N 49°00' W 123°30'1 1.5
2017-Nov-09 13:59N 49°01' W 123°30'1 1.5
2017-Nov-09 13:29N 49°02' W 123°31'1 1.5
2017-Nov-09 12:34N 49°03' W 123°30'0 1.4
2017-Nov-09 12:24N 49°03' W 123°30'1 1.7
2017-Nov-09 12:00N 49°04' W 123°29'1 2.7
2017-Nov-09 11:28N 49°04' W 123°27'1 2.9
2017-Nov-09 10:59N 49°04' W 123°24'2 4.1
2017-Nov-09 10:30N 49°05' W 123°22'4 7.3
2017-Nov-09 09:56N 49°07' W 123°16'3 7.3
2017-Nov-09 09:29N 49°07' W 123°11'4 8.0
2017-Nov-09 09:00N 49°07' W 123°05'4 7.7
2017-Nov-09 08:29N 49°09' W 122°60'2 4.1
2017-Nov-09 08:00N 49°10' W 122°57'0 0.1
2017-Nov-09 07:28N 49°10' W 122°57'0 0.0
2017-Nov-09 07:00N 49°10' W 122°57'0 0.0
2017-Nov-09 06:30N 49°10' W 122°57'0 0.0
2017-Nov-09 06:00N 49°10' W 122°57'0 0.0
2017-Nov-09 05:29N 49°10' W 122°57'0 0.1
2017-Nov-09 05:00N 49°10' W 122°57'0 0.6
2017-Nov-09 04:30N 49°09' W 122°57'0 0.0
2017-Nov-09 03:57N 49°09' W 122°57'0 0.1
2017-Nov-09 03:29N 49°09' W 122°57'0 0.0
2017-Nov-09 03:00N 49°09' W 122°57'0 0.3
2017-Nov-09 02:29N 49°09' W 122°58'0 0.5
2017-Nov-09 01:57N 49°10' W 122°58'2 4.0
2017-Nov-09 01:29N 49°09' W 123°01'3 5.8
2017-Nov-09 01:00N 49°07' W 123°04'3 5.7
2017-Nov-09 00:29N 49°07' W 123°09'3 5.5
2017-Nov-08 23:57N 49°08' W 123°13'3 5.7
2017-Nov-08 23:30N 49°07' W 123°17'4 6.7
2017-Nov-08 22:57N 49°05' W 123°21'11 7.0
2017-Nov-08 21:25N 49°00' W 123°36'6 7.4
2017-Nov-08 20:34N 48°54' W 123°36'2 0.6
2017-Nov-08 17:34N 48°53' W 123°38'0 3.5
2017-Nov-08 17:30N 48°52' W 123°38'8 3.8
2017-Nov-08 15:28N 49°00' W 123°36'2 4.0
2017-Nov-08 14:53N 49°02' W 123°34'1 1.8
2017-Nov-08 14:15N 49°01' W 123°33'0 1.0
2017-Nov-08 14:00N 49°01' W 123°33'1 1.2
2017-Nov-08 13:27N 49°02' W 123°33'1 2.1
2017-Nov-08 12:54N 49°03' W 123°33'1 2.0
2017-Nov-08 12:30N 49°03' W 123°32'1 1.5
2017-Nov-08 11:51N 49°04' W 123°31'1 2.8
2017-Nov-08 11:27N 49°04' W 123°29'2 3.1
2017-Nov-08 10:53N 49°04' W 123°26'1 3.2
2017-Nov-08 10:30N 49°04' W 123°25'2 3.5
2017-Nov-08 10:00N 49°05' W 123°22'3 6.6
2017-Nov-08 09:29N 49°07' W 123°17'4 7.6
2017-Nov-08 08:55N 49°07' W 123°11'4 8.5
2017-Nov-08 08:30N 49°07' W 123°05'4 8.5
2017-Nov-08 08:00N 49°09' W 123°00'2 3.3
2017-Nov-08 07:30N 49°09' W 122°58'0 0.1
2017-Nov-08 06:55N 49°09' W 122°57'0 0.0
2017-Nov-08 06:30N 49°09' W 122°57'0 0.0
2017-Nov-08 05:55N 49°09' W 122°57'0 0.0
2017-Nov-08 05:30N 49°09' W 122°57'0 0.0
2017-Nov-08 04:59N 49°09' W 122°57'0 0.0
2017-Nov-08 04:09N 49°09' W 122°57'0 0.0
2017-Nov-08 03:54N 49°09' W 122°57'0 0.8
2017-Nov-08 03:27N 49°10' W 122°57'1 2.5
2017-Nov-08 02:58N 49°09' W 122°59'2 3.3
2017-Nov-08 02:29N 49°10' W 122°56'1 1.2
2017-Nov-08 01:53N 49°10' W 122°55'0 0.0
2017-Nov-08 01:27N 49°10' W 122°55'0 0.0
2017-Nov-08 01:00N 49°10' W 122°55'0 0.0
2017-Nov-08 00:27N 49°10' W 122°55'0 0.0
2017-Nov-07 23:59N 49°10' W 122°55'0 0.0
2017-Nov-07 23:29N 49°10' W 122°55'0 0.0
2017-Nov-07 22:57N 49°10' W 122°55'0 0.0
2017-Nov-07 22:29N 49°10' W 122°55'0 0.0
2017-Nov-07 21:54N 49°10' W 122°55'0 0.0
2017-Nov-07 21:21N 49°10' W 122°55'0 0.0
2017-Nov-07 20:57N 49°10' W 122°55'  
Track history (hours):
 
Tides and Currents Weather Stations Pressure Air Temp Water Temp Dewpoint Dewpoint Depression Visibility Wind Speed Wind Dir Waves Ship Positions

Seaspan Protector

Last reported at 2017-Nov-17 20:22 UTC. Time now 2017-Nov-17 23:20 UTC.
Position N 49°04' W 123°31'.

Length 22 m; draft 3.2 m.

Type: Towing. MMSI: 316003677.

Date/timePositionNaut miles runAvg speedWind from/ knotsBaromVisibWave heightAir tempDewpointWater temp
2017-Nov-17 20:22N 49°04' W 123°31'2 3.8
2017-Nov-17 19:58N 49°05' W 123°29'3 4.1
2017-Nov-17 19:19N 49°05' W 123°25'1 4.3
2017-Nov-17 19:00N 49°05' W 123°23'3 5.3
2017-Nov-17 18:22N 49°06' W 123°18'2 6.8
2017-Nov-17 18:00N 49°08' W 123°15'3 7.0
2017-Nov-17 17:30N 49°07' W 123°09'3 6.8
2017-Nov-17 17:00N 49°07' W 123°04'3 6.7
2017-Nov-17 16:29N 49°09' W 123°00'2 3.3
2017-Nov-17 15:58N 49°09' W 122°57'0 0.1
2017-Nov-17 14:53N 49°09' W 122°57'1 1.0
2017-Nov-17 14:21N 49°10' W 122°58'0 0.6
2017-Nov-17 14:00N 49°09' W 122°58'2 4.1
2017-Nov-17 13:30N 49°09' W 123°01'3 5.4
2017-Nov-17 13:00N 49°07' W 123°05'3 5.8
2017-Nov-17 12:30N 49°07' W 123°09'4 6.9
2017-Nov-17 11:59N 49°08' W 123°14'4 7.8
2017-Nov-17 11:28N 49°06' W 123°19'3 7.0
2017-Nov-17 11:00N 49°04' W 123°24'6 0.8
2017-Nov-17 04:05N 49°02' W 123°32'0 1.4
2017-Nov-17 03:51N 49°02' W 123°32'2 3.8
2017-Nov-17 03:25N 49°04' W 123°33'2 3.8
2017-Nov-17 02:49N 49°03' W 123°29'2 3.9
2017-Nov-17 02:22N 49°04' W 123°27'2 4.5
2017-Nov-17 01:53N 49°05' W 123°24'2 5.2
2017-Nov-17 01:28N 49°05' W 123°20'3 5.6
2017-Nov-17 00:59N 49°07' W 123°17'3 5.2
2017-Nov-17 00:29N 49°08' W 123°13'3 4.9
2017-Nov-16 23:56N 49°07' W 123°10'2 5.1
2017-Nov-16 23:30N 49°07' W 123°06'3 5.1
2017-Nov-16 23:00N 49°08' W 123°03'3 5.4
2017-Nov-16 22:30N 49°09' W 122°59'1 2.7
2017-Nov-16 22:00N 49°09' W 122°57'0 0.0
2017-Nov-16 21:30N 49°09' W 122°57'0 0.0
2017-Nov-16 20:58N 49°09' W 122°57'1 2.0
2017-Nov-16 20:30N 49°10' W 122°56'0 0.7
2017-Nov-16 19:51N 49°10' W 122°55'2 4.6
2017-Nov-16 19:30N 49°09' W 122°58'4 7.2
2017-Nov-16 19:00N 49°08' W 123°03'4 7.1
2017-Nov-16 18:30N 49°07' W 123°07'3 5.5
2017-Nov-16 18:00N 49°07' W 123°11'0 0.0
2017-Nov-16 17:20N 49°07' W 123°11'0 0.0
2017-Nov-16 16:56N 49°07' W 123°11'0 0.0
2017-Nov-16 16:23N 49°07' W 123°11'0 0.0
2017-Nov-16 16:00N 49°07' W 123°11'3 6.4
2017-Nov-16 15:30N 49°07' W 123°07'5 9.2
2017-Nov-16 15:00N 49°09' W 123°01'2 4.1
2017-Nov-16 14:30N 49°09' W 122°58'1 2.3
2017-Nov-16 14:00N 49°09' W 122°59'3 5.1
2017-Nov-16 13:30N 49°08' W 123°03'3 6.9
2017-Nov-16 13:00N 49°07' W 123°07'3 6.9
2017-Nov-16 12:30N 49°08' W 123°12'3 6.3
2017-Nov-16 12:00N 49°07' W 123°17'3 6.2
2017-Nov-16 11:29N 49°05' W 123°22'15 4.8
2017-Nov-16 08:27N 48°54' W 123°36'9 1.9
2017-Nov-16 03:51N 49°02' W 123°31'2 5.9
2017-Nov-16 03:29N 49°03' W 123°28'4 6.1
2017-Nov-16 02:52N 49°05' W 123°23'2 6.0
2017-Nov-16 02:30N 49°06' W 123°20'3 6.4
2017-Nov-16 02:00N 49°07' W 123°16'3 5.5
2017-Nov-16 01:24N 49°07' W 123°11'2 6.0
2017-Nov-16 01:00N 49°07' W 123°07'3 5.5
2017-Nov-16 00:27N 49°08' W 123°03'3 4.9
2017-Nov-15 23:51N 49°09' W 122°59'1 3.6
2017-Nov-15 23:30N 49°09' W 122°57'1 2.0
2017-Nov-15 23:00N 49°10' W 122°56'0 0.9
2017-Nov-15 22:29N 49°10' W 122°55'0 0.0
2017-Nov-15 22:00N 49°10' W 122°55'0 0.0
2017-Nov-15 21:27N 49°10' W 122°55'0 0.0
2017-Nov-15 20:57N 49°10' W 122°55'2 3.9
2017-Nov-15 20:29N 49°09' W 122°58'2 5.1
2017-Nov-15 20:00N 49°09' W 123°02'4 7.2
2017-Nov-15 19:30N 49°07' W 123°06'3 5.7
2017-Nov-15 18:59N 49°07' W 123°11'3 5.5
2017-Nov-15 18:30N 49°08' W 123°15'3 5.6
2017-Nov-15 17:59N 49°06' W 123°18'2 4.8
2017-Nov-15 17:30N 49°05' W 123°22'4 7.7
2017-Nov-15 17:00N 49°04' W 123°27'11 7.0
2017-Nov-15 15:24N 48°54' W 123°37'2 0.1
2017-Nov-14 19:15N 48°55' W 123°39'2 6.1
2017-Nov-14 18:54N 48°56' W 123°42'1 0.3
2017-Nov-14 16:39N 48°55' W 123°43'1 1.7
2017-Nov-14 16:17N 48°56' W 123°43'2 6.7
2017-Nov-14 15:57N 48°55' W 123°40'4 0.7
2017-Nov-14 10:12N 48°59' W 123°37'3 4.9
2017-Nov-14 09:35N 49°01' W 123°35'2 4.9
2017-Nov-14 09:07N 49°02' W 123°32'2 6.0
2017-Nov-14 08:52N 49°03' W 123°29'3 6.3
2017-Nov-14 08:27N 49°04' W 123°26'3 5.9
2017-Nov-14 08:00N 49°05' W 123°22'3 5.8
2017-Nov-14 07:30N 49°06' W 123°18'3 6.4
2017-Nov-14 07:00N 49°08' W 123°14'4 7.1
2017-Nov-14 06:30N 49°07' W 123°09'3 6.9
2017-Nov-14 06:00N 49°08' W 123°04'4 7.5
2017-Nov-14 05:28N 49°09' W 122°58'0 0.6
2017-Nov-14 04:53N 49°09' W 122°58'2 4.0
2017-Nov-14 04:30N 49°10' W 122°55'0 0.0
2017-Nov-14 04:00N 49°10' W 122°55'0 0.0
2017-Nov-14 03:30N 49°10' W 122°55'0 0.0
2017-Nov-14 03:00N 49°10' W 122°55'0 0.0
2017-Nov-14 02:28N 49°10' W 122°55'0 0.0
2017-Nov-14 02:00N 49°10' W 122°55'0 0.0
2017-Nov-14 01:29N 49°10' W 122°55'0 0.0
2017-Nov-14 00:59N 49°10' W 122°55'0 0.0
2017-Nov-14 00:30N 49°10' W 122°55'0 0.0
2017-Nov-13 23:57N 49°10' W 122°55'0 0.0
2017-Nov-13 23:30N 49°10' W 122°55'0 0.0
2017-Nov-13 22:58N 49°10' W 122°55'0 0.0
2017-Nov-13 22:29N 49°10' W 122°55'0 0.0
2017-Nov-13 21:59N 49°10' W 122°55'23 1.1
2017-Nov-13 00:38N 49°03' W 123°29'1 7.1
2017-Nov-13 00:30N 49°04' W 123°27'6 6.9
2017-Nov-12 23:41N 49°06' W 123°19'2 7.1
2017-Nov-12 23:23N 49°07' W 123°17'3 6.6
2017-Nov-12 23:00N 49°08' W 123°13'3 6.2
2017-Nov-12 22:30N 49°06' W 123°09'3 5.5
2017-Nov-12 21:58N 49°07' W 123°05'4 4.7
2017-Nov-12 21:12N 49°09' W 122°60'1 3.7
2017-Nov-12 20:56N 49°09' W 122°58'1 2.0
2017-Nov-12 20:28N 49°09' W 122°57'1 2.6
2017-Nov-12 20:00N 49°10' W 122°55'0 0.0
2017-Nov-12 19:28N 49°10' W 122°55'0 0.0
2017-Nov-12 19:00N 49°10' W 122°55'0 0.0
2017-Nov-12 18:30N 49°10' W 122°55'0 0.0
2017-Nov-12 18:00N 49°10' W 122°55'0 0.0
2017-Nov-12 17:30N 49°10' W 122°55'0 0.0
2017-Nov-12 17:00N 49°10' W 122°55'0 0.0
2017-Nov-12 16:30N 49°10' W 122°55'0 0.0
2017-Nov-12 16:00N 49°10' W 122°55'0 0.0
2017-Nov-12 15:30N 49°10' W 122°55'0 0.0
2017-Nov-12 15:00N 49°10' W 122°55'0 0.0
2017-Nov-12 14:24N 49°10' W 122°55'0 0.0
2017-Nov-12 13:59N 49°10' W 122°55'0 0.0
2017-Nov-12 13:30N 49°10' W 122°55'0 0.0
2017-Nov-12 13:00N 49°10' W 122°55'0 0.0
2017-Nov-12 12:29N 49°10' W 122°55'0 0.0
2017-Nov-12 12:00N 49°10' W 122°55'0 0.0
2017-Nov-12 11:30N 49°10' W 122°55'0 0.0
2017-Nov-12 10:59N 49°10' W 122°55'0 0.0
2017-Nov-12 10:28N 49°10' W 122°55'0 0.0
2017-Nov-12 10:00N 49°10' W 122°55'0 0.0
2017-Nov-12 09:30N 49°10' W 122°55'2 4.2
2017-Nov-12 09:00N 49°09' W 122°58'2 4.1
2017-Nov-12 08:30N 49°09' W 123°02'3 5.9
2017-Nov-12 08:00N 49°07' W 123°05'3 5.9
2017-Nov-12 07:30N 49°07' W 123°09'3 5.8
2017-Nov-12 06:59N 49°08' W 123°13'3 5.9
2017-Nov-12 06:30N 49°07' W 123°17'3 6.0
2017-Nov-12 05:59N 49°05' W 123°22'4 6.7
2017-Nov-12 05:27N 49°04' W 123°27'11 5.6
2017-Nov-12 03:33N 48°55' W 123°37'2 6.6
2017-Nov-12 03:14N 48°53' W 123°36'6 2.2
2017-Nov-12 00:30N 48°59' W 123°37'4 5.8
2017-Nov-11 23:45N 49°03' W 123°34'2 5.7
2017-Nov-11 23:28N 49°05' W 123°33'3 6.0
2017-Nov-11 22:57N 49°07' W 123°30'3 6.4
2017-Nov-11 22:24N 49°10' W 123°27'3 6.3
2017-Nov-11 21:59N 49°12' W 123°24'3 6.1
2017-Nov-11 21:30N 49°14' W 123°21'3 5.7
2017-Nov-11 20:59N 49°16' W 123°18'2 3.7
2017-Nov-11 20:29N 49°15' W 123°15'2 3.5
2017-Nov-11 20:00N 49°14' W 123°13'0 0.0
2017-Nov-11 19:30N 49°14' W 123°13'3 5.1
2017-Nov-11 18:59N 49°13' W 123°10'1 2.3
2017-Nov-11 18:30N 49°12' W 123°08'0 0.0
2017-Nov-11 17:56N 49°12' W 123°08'0 0.0
2017-Nov-11 17:30N 49°12' W 123°08'0 0.0
2017-Nov-11 16:59N 49°12' W 123°08'0 0.0
2017-Nov-11 10:25N 49°12' W 123°08'0 0.0
2017-Nov-11 09:48N 49°12' W 123°08'2 4.5
2017-Nov-11 09:26N 49°12' W 123°06'5 6.6
2017-Nov-11 08:39N 49°11' W 122°58'2 5.6
2017-Nov-11 08:16N 49°11' W 122°55'2 7.6
2017-Nov-11 07:59N 49°10' W 122°57'2 3.0
2017-Nov-11 07:27N 49°09' W 122°59'3 6.5
2017-Nov-11 07:00N 49°08' W 123°03'3 6.4
2017-Nov-11 06:30N 49°07' W 123°07'3 5.9
2017-Nov-11 05:57N 49°07' W 123°12'3 5.7
2017-Nov-11 05:30N 49°07' W 123°16'3 6.2
2017-Nov-11 05:00N 49°07' W 123°21'3 6.4
2017-Nov-11 04:29N 49°09' W 123°25'4 8.2
2017-Nov-11 03:59N 49°11' W 123°29'4 8.0
2017-Nov-11 03:28N 49°14' W 123°34'5 7.6
2017-Nov-11 02:52N 49°16' W 123°40'15 8.2
2017-Nov-11 01:00N 49°26' W 123°58'4 7.9
2017-Nov-11 00:27N 49°29' W 124°03'4 8.0
2017-Nov-11 00:00N 49°32' W 124°07'4 8.0
2017-Nov-10 23:29N 49°35' W 124°11'4 7.8
2017-Nov-10 23:00N 49°38' W 124°15'4 8.0
2017-Nov-10 22:30N 49°41' W 124°19'4 8.1
2017-Nov-10 22:00N 49°44' W 124°23'4 7.8
2017-Nov-10 21:30N 49°46' W 124°28'4 7.6
2017-Nov-10 21:00N 49°49' W 124°33'4 7.5
2017-Nov-10 20:30N 49°52' W 124°34'0 1.0
2017-Nov-10 20:00N 49°52' W 124°34'0 0.0
2017-Nov-10 19:30N 49°52' W 124°34'0 0.0
2017-Nov-10 19:00N 49°52' W 124°34'0 0.0
2017-Nov-10 18:30N 49°52' W 124°34'0 0.0
2017-Nov-10 18:00N 49°52' W 124°34'0 0.0
2017-Nov-10 17:30N 49°52' W 124°34'0 0.0
2017-Nov-10 17:00N 49°52' W 124°34'0 0.0
2017-Nov-10 16:30N 49°52' W 124°34'0 0.3
2017-Nov-10 16:00N 49°52' W 124°34'1 2.7
2017-Nov-10 15:28N 49°51' W 124°34'2 4.6
2017-Nov-10 15:00N 49°49' W 124°33'4 7.4
2017-Nov-10 14:30N 49°46' W 124°29'4 8.3
2017-Nov-10 14:00N 49°44' W 124°24'4 7.7
2017-Nov-10 13:30N 49°42' W 124°19'4 8.2
2017-Nov-10 12:59N 49°38' W 124°15'38 7.7
2017-Nov-10 08:03N 49°12' W 123°33'4 7.8
2017-Nov-10 07:33N 49°10' W 123°28'2 7.6
2017-Nov-10 07:21N 49°09' W 123°26'4 7.4
2017-Nov-10 06:52N 49°07' W 123°22'3 6.5
2017-Nov-10 06:27N 49°06' W 123°18'4 8.0
2017-Nov-10 05:58N 49°07' W 123°12'4 8.8
2017-Nov-10 05:30N 49°07' W 123°06'4 8.5
2017-Nov-10 04:59N 49°09' W 122°60'2 3.8
2017-Nov-10 04:28N 49°10' W 122°57'0 0.0
2017-Nov-10 02:49N 49°10' W 122°57'1 2.1
2017-Nov-10 02:29N 49°10' W 122°58'2 4.5
2017-Nov-10 01:59N 49°09' W 123°01'3 5.4
2017-Nov-10 01:30N 49°07' W 123°05'3 5.3
2017-Nov-10 00:59N 49°07' W 123°09'3 5.2
2017-Nov-10 00:24N 49°08' W 123°13'3 5.7
2017-Nov-09 23:55N 49°07' W 123°17'3 7.1
2017-Nov-09 23:26N 49°05' W 123°21'12 6.7
2017-Nov-09 21:40N 48°59' W 123°37'3 7.5
2017-Nov-09 21:15N 48°56' W 123°37'2 7.5
2017-Nov-09 20:59N 48°54' W 123°37'1 0.6
2017-Nov-09 18:38N 48°52' W 123°38'0 0.3
2017-Nov-09 18:26N 48°53' W 123°38'7 3.3
2017-Nov-09 16:14N 48°60' W 123°36'2 4.4
2017-Nov-09 15:48N 49°01' W 123°35'1 2.9
2017-Nov-09 15:24N 49°02' W 123°33'1 3.3
2017-Nov-09 15:00N 49°01' W 123°32'1 2.6
2017-Nov-09 14:29N 49°00' W 123°30'1 1.5
2017-Nov-09 13:59N 49°01' W 123°30'1 1.5
2017-Nov-09 13:29N 49°02' W 123°31'1 1.5
2017-Nov-09 12:34N 49°03' W 123°30'0 1.4
2017-Nov-09 12:24N 49°03' W 123°30'1 1.7
2017-Nov-09 12:00N 49°04' W 123°29'1 2.7
2017-Nov-09 11:28N 49°04' W 123°27'1 2.9
2017-Nov-09 10:59N 49°04' W 123°24'2 4.1
2017-Nov-09 10:30N 49°05' W 123°22'4 7.3
2017-Nov-09 09:56N 49°07' W 123°16'3 7.3
2017-Nov-09 09:29N 49°07' W 123°11'4 8.0
2017-Nov-09 09:00N 49°07' W 123°05'4 7.7
2017-Nov-09 08:29N 49°09' W 122°60'2 4.1
2017-Nov-09 08:00N 49°10' W 122°57'0 0.1
2017-Nov-09 07:28N 49°10' W 122°57'0 0.0
2017-Nov-09 07:00N 49°10' W 122°57'0 0.0
2017-Nov-09 06:30N 49°10' W 122°57'0 0.0
2017-Nov-09 06:00N 49°10' W 122°57'0 0.0
2017-Nov-09 05:29N 49°10' W 122°57'0 0.1
2017-Nov-09 05:00N 49°10' W 122°57'0 0.6
2017-Nov-09 04:30N 49°09' W 122°57'0 0.0
2017-Nov-09 03:57N 49°09' W 122°57'0 0.1
2017-Nov-09 03:29N 49°09' W 122°57'0 0.0
2017-Nov-09 03:00N 49°09' W 122°57'0 0.3
2017-Nov-09 02:29N 49°09' W 122°58'0 0.5
2017-Nov-09 01:57N 49°10' W 122°58'2 4.0
2017-Nov-09 01:29N 49°09' W 123°01'3 5.8
2017-Nov-09 01:00N 49°07' W 123°04'3 5.7
2017-Nov-09 00:29N 49°07' W 123°09'3 5.5
2017-Nov-08 23:57N 49°08' W 123°13'3 5.7
2017-Nov-08 23:30N 49°07' W 123°17'4 6.7
2017-Nov-08 22:57N 49°05' W 123°21'11 7.0
2017-Nov-08 21:25N 49°00' W 123°36'6 7.4
2017-Nov-08 20:34N 48°54' W 123°36'2 0.6
2017-Nov-08 17:34N 48°53' W 123°38'0 3.5
2017-Nov-08 17:30N 48°52' W 123°38'8 3.8
2017-Nov-08 15:28N 49°00' W 123°36'2 4.0
2017-Nov-08 14:53N 49°02' W 123°34'1 1.8
2017-Nov-08 14:15N 49°01' W 123°33'0 1.0
2017-Nov-08 14:00N 49°01' W 123°33'1 1.2
2017-Nov-08 13:27N 49°02' W 123°33'1 2.1
2017-Nov-08 12:54N 49°03' W 123°33'1 2.0
2017-Nov-08 12:30N 49°03' W 123°32'1 1.5
2017-Nov-08 11:51N 49°04' W 123°31'1 2.8
2017-Nov-08 11:27N 49°04' W 123°29'2 3.1
2017-Nov-08 10:53N 49°04' W 123°26'1 3.2
2017-Nov-08 10:30N 49°04' W 123°25'2 3.5
2017-Nov-08 10:00N 49°05' W 123°22'3 6.6
2017-Nov-08 09:29N 49°07' W 123°17'4 7.6
2017-Nov-08 08:55N 49°07' W 123°11'4 8.5
2017-Nov-08 08:30N 49°07' W 123°05'4 8.5
2017-Nov-08 08:00N 49°09' W 123°00'2 3.3
2017-Nov-08 07:30N 49°09' W 122°58'0 0.1
2017-Nov-08 06:55N 49°09' W 122°57'0 0.0
2017-Nov-08 06:30N 49°09' W 122°57'0 0.0
2017-Nov-08 05:55N 49°09' W 122°57'0 0.0
2017-Nov-08 05:30N 49°09' W 122°57'0 0.0
2017-Nov-08 04:59N 49°09' W 122°57'0 0.0
2017-Nov-08 04:09N 49°09' W 122°57'0 0.0
2017-Nov-08 03:54N 49°09' W 122°57'0 0.8
2017-Nov-08 03:27N 49°10' W 122°57'1 2.5
2017-Nov-08 02:58N 49°09' W 122°59'2 3.3
2017-Nov-08 02:29N 49°10' W 122°56'1 1.2
2017-Nov-08 01:53N 49°10' W 122°55'0 0.0
2017-Nov-08 01:27N 49°10' W 122°55'0 0.0
2017-Nov-08 01:00N 49°10' W 122°55'0 0.0
2017-Nov-08 00:27N 49°10' W 122°55'0 0.0
2017-Nov-07 23:59N 49°10' W 122°55'0 0.0
2017-Nov-07 23:29N 49°10' W 122°55'0 0.0
2017-Nov-07 22:57N 49°10' W 122°55'0 0.0
2017-Nov-07 22:29N 49°10' W 122°55'0 0.0
2017-Nov-07 21:54N 49°10' W 122°55'0 0.0
2017-Nov-07 21:21N 49°10' W 122°55'0 0.0
2017-Nov-07 20:57N 49°10' W 122°55'  

Dump ship's entire track history